Time;durP1;ratioP1;P1;durP2;ratioP2;P2;SDS_P1;SDS_P2;PMS_P1;PMS_P2;Temp;Humidity;BMP_temperature;BMP_pressure;BME280_temperature;BME280_humidity;BME280_pressure;Samples;Min_cycle;Max_cycle;Signal;HPM_P1;HPM_P2
2023/07/11 00:00:03;;;;;;;5.53;3.30;;;22.10;99.90;;;;;;5084888;28;20021;-73
2023/07/11 00:02:29;;;;;;;7.32;3.25;;;22.10;99.90;;;;;;5082720;28;20029;-73
2023/07/11 00:04:56;;;;;;;6.35;3.50;;;22.10;99.90;;;;;;5086074;28;20511;-73
2023/07/11 00:07:22;;;;;;;6.57;3.22;;;22.10;99.90;;;;;;5088967;28;20025;-72
2023/07/11 00:09:48;;;;;;;7.10;3.20;;;22.00;99.90;;;;;;5081695;28;20031;-73
2023/07/11 00:12:16;;;;;;;8.20;3.67;;;22.00;99.90;;;;;;5081704;28;20480;-73
2023/07/11 00:14:42;;;;;;;8.82;4.03;;;22.00;99.90;;;;;;5086803;28;20017;-72
2023/07/11 00:17:07;;;;;;;9.38;3.45;;;22.00;99.90;;;;;;5081394;28;20544;-72
2023/07/11 00:19:49;;;;;;;5.30;3.22;;;22.00;99.90;;;;;;5084132;28;20028;-72
2023/07/11 00:22:16;;;;;;;4.97;3.55;;;21.90;99.90;;;;;;5080287;28;20196;-73
2023/07/11 00:24:42;;;;;;;4.40;3.30;;;21.90;99.90;;;;;;5086734;28;20039;-73
2023/07/11 00:27:10;;;;;;;5.53;3.80;;;21.90;99.90;;;;;;5085766;28;20099;-73
2023/07/11 00:29:36;;;;;;;6.40;3.40;;;21.90;99.90;;;;;;5081667;28;20039;-73
2023/07/11 00:32:03;;;;;;;4.72;3.30;;;21.90;99.90;;;;;;5084207;28;20031;-73
2023/07/11 00:34:29;;;;;;;7.50;4.20;;;21.80;99.90;;;;;;5089251;28;20043;-73
2023/07/11 00:36:55;;;;;;;7.43;4.00;;;21.80;99.90;;;;;;5092187;28;20021;-72
2023/07/11 00:39:20;;;;;;;6.38;3.92;;;21.80;99.90;;;;;;5083664;28;20028;-72
2023/07/11 00:41:46;;;;;;;7.65;3.85;;;21.70;99.90;;;;;;5082363;28;20036;-72
2023/07/11 00:44:16;;;;;;;9.27;4.05;;;21.70;99.90;;;;;;5090263;28;20031;-72
2023/07/11 00:46:43;;;;;;;7.45;3.70;;;21.70;99.90;;;;;;5084659;28;20024;-72
2023/07/11 00:49:12;;;;;;;6.70;3.83;;;21.70;99.90;;;;;;5081187;28;20381;-73
2023/07/11 00:51:43;;;;;;;6.32;3.97;;;21.60;99.90;;;;;;5081874;28;20108;-72
2023/07/11 00:54:11;;;;;;;5.95;4.28;;;21.60;99.90;;;;;;5082597;28;20021;-73
2023/07/11 00:56:40;;;;;;;9.07;4.07;;;21.60;99.90;;;;;;5082145;28;20034;-72
2023/07/11 00:59:08;;;;;;;8.98;4.05;;;21.60;99.90;;;;;;5076225;28;20269;-72
2023/07/11 01:01:34;;;;;;;6.15;4.60;;;21.60;99.90;;;;;;5079984;28;22099;-73
2023/07/11 01:04:03;;;;;;;4.38;3.75;;;21.50;99.90;;;;;;5077445;28;20032;-72
2023/07/11 01:06:30;;;;;;;11.05;4.20;;;21.50;99.90;;;;;;5083602;28;20042;-72
2023/07/11 01:08:57;;;;;;;4.57;3.42;;;21.50;99.90;;;;;;5080958;28;20028;-72
2023/07/11 01:11:26;;;;;;;5.57;3.55;;;21.40;99.90;;;;;;5088278;28;20016;-73
2023/07/11 01:13:51;;;;;;;6.97;3.50;;;21.40;99.90;;;;;;5080498;28;20050;-72
2023/07/11 01:16:17;;;;;;;9.38;4.30;;;21.40;99.90;;;;;;5081626;28;20024;-72
2023/07/11 01:18:43;;;;;;;7.00;3.53;;;21.40;99.90;;;;;;5082525;28;20032;-72
2023/07/11 01:21:21;;;;;;;5.22;3.80;;;21.30;99.90;;;;;;5075081;28;20020;-72
2023/07/11 01:23:47;;;;;;;7.43;4.10;;;21.30;99.90;;;;;;5079499;28;20043;-72
2023/07/11 01:26:12;;;;;;;9.98;4.18;;;21.20;99.90;;;;;;5084208;28;20471;-72
2023/07/11 01:28:39;;;;;;;5.85;3.65;;;21.20;99.90;;;;;;5080528;28;20441;-72
2023/07/11 01:31:06;;;;;;;6.25;4.07;;;21.20;99.90;;;;;;5082204;28;20108;-72
2023/07/11 01:33:32;;;;;;;4.68;4.15;;;21.10;99.90;;;;;;5078326;28;20091;-72
2023/07/11 01:35:58;;;;;;;4.88;4.07;;;21.10;99.90;;;;;;5087930;28;20061;-72
2023/07/11 01:38:25;;;;;;;5.55;4.00;;;21.10;99.90;;;;;;5078130;28;20112;-72
2023/07/11 01:40:51;;;;;;;7.72;4.07;;;21.10;99.90;;;;;;5079229;28;20388;-73
2023/07/11 01:43:18;;;;;;;6.95;4.03;;;21.10;99.90;;;;;;5078430;28;20036;-72
2023/07/11 01:45:44;;;;;;;8.65;4.70;;;21.00;99.90;;;;;;5078503;28;20044;-72
2023/07/11 01:48:10;;;;;;;6.40;4.38;;;21.00;99.90;;;;;;5076354;28;20029;-72
2023/07/11 01:50:36;;;;;;;9.25;3.90;;;21.00;99.90;;;;;;5080041;28;20043;-72
2023/07/11 01:53:02;;;;;;;7.97;4.30;;;20.90;99.90;;;;;;5083068;28;20032;-72
2023/07/11 01:55:28;;;;;;;8.43;4.20;;;20.90;99.90;;;;;;5079224;28;20028;-72
2023/07/11 01:57:54;;;;;;;6.50;3.92;;;20.90;99.90;;;;;;5085810;28;20127;-72
2023/07/11 02:00:20;;;;;;;6.28;4.10;;;20.90;99.90;;;;;;5078791;28;20103;-72
2023/07/11 02:02:46;;;;;;;5.65;4.43;;;20.80;99.90;;;;;;5077773;28;20472;-72
2023/07/11 02:05:14;;;;;;;6.78;4.18;;;20.80;99.90;;;;;;5080759;28;20042;-72
2023/07/11 02:07:39;;;;;;;14.38;4.22;;;20.80;99.90;;;;;;5081325;28;20028;-72
2023/07/11 02:10:06;;;;;;;8.02;4.32;;;20.70;99.90;;;;;;5080415;28;20040;-72
2023/07/11 02:12:31;;;;;;;6.47;4.03;;;20.70;99.90;;;;;;5080007;28;20024;-72
2023/07/11 02:14:57;;;;;;;5.03;3.55;;;20.70;99.90;;;;;;5085034;28;20107;-72
2023/07/11 02:17:23;;;;;;;6.22;4.35;;;20.70;99.90;;;;;;5078955;28;20059;-72
2023/07/11 02:19:48;;;;;;;6.18;4.65;;;20.70;99.90;;;;;;5079204;28;20028;-72
2023/07/11 02:22:14;;;;;;;7.70;4.40;;;20.70;99.90;;;;;;5085314;28;20115;-72
2023/07/11 02:24:40;;;;;;;5.40;3.97;;;20.60;99.90;;;;;;5079948;28;20093;-72
2023/07/11 02:27:06;;;;;;;8.25;5.07;;;20.60;99.90;;;;;;5078902;28;20504;-72
2023/07/11 02:29:33;;;;;;;8.50;4.65;;;20.60;99.90;;;;;;5083127;28;20397;-72
2023/07/11 02:31:59;;;;;;;5.28;4.78;;;20.60;99.90;;;;;;5080064;28;20024;-72
2023/07/11 02:34:24;;;;;;;7.63;4.30;;;20.50;99.90;;;;;;5083743;28;20055;-72
2023/07/11 02:36:50;;;;;;;5.53;4.20;;;20.50;99.90;;;;;;5076949;28;20020;-72
2023/07/11 02:39:16;;;;;;;8.43;4.80;;;20.50;99.90;;;;;;5085496;28;20028;-72
2023/07/11 02:41:42;;;;;;;6.15;4.00;;;20.40;99.90;;;;;;5079872;28;20024;-72
2023/07/11 02:44:08;;;;;;;7.80;5.00;;;20.40;99.90;;;;;;5081573;28;20047;-72
2023/07/11 02:46:35;;;;;;;6.32;4.32;;;20.40;99.90;;;;;;5076280;28;20024;-72
2023/07/11 02:49:01;;;;;;;7.20;4.55;;;20.40;99.90;;;;;;5081478;28;20024;-72
2023/07/11 02:51:27;;;;;;;5.82;4.47;;;20.40;99.90;;;;;;5083044;28;20031;-72
2023/07/11 02:53:52;;;;;;;7.13;4.65;;;20.30;99.90;;;;;;5078579;28;20089;-72
2023/07/11 02:56:19;;;;;;;4.85;4.30;;;20.30;99.90;;;;;;5085823;28;20028;-72
2023/07/11 02:58:46;;;;;;;9.02;4.35;;;20.30;99.90;;;;;;5082358;28;20477;-72
2023/07/11 03:01:12;;;;;;;7.05;4.28;;;20.30;99.90;;;;;;5084772;28;20012;-72
2023/07/11 03:03:37;;;;;;;9.13;4.72;;;20.20;99.90;;;;;;5094120;28;20115;-72
2023/07/11 03:06:03;;;;;;;7.22;5.13;;;20.20;99.90;;;;;;5084311;28;20034;-72
2023/07/11 03:08:29;;;;;;;7.68;5.10;;;20.20;99.90;;;;;;5081503;28;20444;-72
2023/07/11 03:10:59;;;;;;;6.72;4.72;;;20.20;99.90;;;;;;5086028;28;20532;-72
2023/07/11 03:13:25;;;;;;;7.70;4.80;;;20.10;99.90;;;;;;5083201;28;20354;-72
2023/07/11 03:15:51;;;;;;;5.32;3.85;;;20.10;99.90;;;;;;5079551;28;20059;-72
2023/07/11 03:18:17;;;;;;;5.60;4.25;;;20.10;99.90;;;;;;5082921;28;20101;-72
2023/07/11 03:20:43;;;;;;;7.05;4.85;;;20.10;99.90;;;;;;5085201;28;20111;-72
2023/07/11 03:23:11;;;;;;;8.38;4.35;;;20.00;99.90;;;;;;5079106;28;20021;-72
2023/07/11 03:25:37;;;;;;;6.18;4.15;;;20.00;99.90;;;;;;5082657;28;20040;-72
2023/07/11 03:28:03;;;;;;;5.85;4.68;;;20.00;99.90;;;;;;5080137;28;20556;-72
2023/07/11 03:30:33;;;;;;;6.70;4.60;;;20.00;99.90;;;;;;5081494;28;20039;-72
2023/07/11 03:32:59;;;;;;;8.55;4.70;;;19.90;99.90;;;;;;5082808;28;20020;-72
2023/07/11 03:35:25;;;;;;;5.28;4.32;;;19.90;99.90;;;;;;5082481;28;20029;-71
2023/07/11 03:37:50;;;;;;;6.85;4.07;;;19.90;99.90;;;;;;5083716;28;20029;-72
2023/07/11 03:40:16;;;;;;;5.28;4.05;;;19.90;99.90;;;;;;5081668;28;20482;-72
2023/07/11 03:42:42;;;;;;;9.75;4.53;;;19.80;99.90;;;;;;5077671;28;20485;-72
2023/07/11 03:45:08;;;;;;;7.85;4.10;;;19.80;99.90;;;;;;5079617;28;20123;-72
2023/07/11 03:47:34;;;;;;;7.47;4.30;;;19.80;99.90;;;;;;5084533;28;20461;-72
2023/07/11 03:49:59;;;;;;;9.05;5.20;;;19.80;99.90;;;;;;5081966;28;20043;-72
2023/07/11 03:52:25;;;;;;;5.70;4.55;;;19.80;99.90;;;;;;5084710;28;20099;-72
2023/07/11 03:54:50;;;;;;;12.25;4.15;;;19.80;99.90;;;;;;5083902;28;20536;-72
2023/07/11 03:57:16;;;;;;;7.32;4.50;;;19.70;99.90;;;;;;5081741;28;20044;-72
2023/07/11 03:59:42;;;;;;;8.15;4.65;;;19.70;99.90;;;;;;5079802;28;20029;-72
2023/07/11 04:02:08;;;;;;;6.95;4.28;;;19.70;99.90;;;;;;5080621;28;20380;-72
2023/07/11 04:04:33;;;;;;;7.07;4.97;;;19.70;99.90;;;;;;5080598;28;20036;-72
2023/07/11 04:06:59;;;;;;;5.32;4.00;;;19.70;99.90;;;;;;5088893;28;20562;-72
2023/07/11 04:09:25;;;;;;;7.47;5.10;;;19.60;99.90;;;;;;5079363;28;20496;-72
2023/07/11 04:11:50;;;;;;;6.75;4.70;;;19.60;99.90;;;;;;5080783;28;20024;-72
2023/07/11 04:14:17;;;;;;;5.43;4.60;;;19.50;99.90;;;;;;5082212;28;20032;-72
2023/07/11 04:16:43;;;;;;;5.80;5.20;;;19.50;99.90;;;;;;5081397;28;20036;-71
2023/07/11 04:19:09;;;;;;;10.27;4.20;;;19.50;99.90;;;;;;5083285;28;20469;-71
2023/07/11 04:21:35;;;;;;;5.75;4.80;;;19.50;99.90;;;;;;5089139;28;20024;-71
2023/07/11 04:24:01;;;;;;;6.32;4.82;;;19.50;99.90;;;;;;5076112;28;20032;-71
2023/07/11 04:26:27;;;;;;;5.18;4.32;;;19.50;99.90;;;;;;5080976;28;20481;-71
2023/07/11 04:28:53;;;;;;;6.05;4.50;;;19.50;99.90;;;;;;5089411;28;20033;-71
2023/07/11 04:31:19;;;;;;;5.25;4.00;;;19.50;99.90;;;;;;5091441;28;20027;-71
2023/07/11 04:33:44;;;;;;;6.00;4.95;;;19.50;99.90;;;;;;5084402;28;20024;-71
2023/07/11 04:36:12;;;;;;;4.88;4.05;;;19.40;99.90;;;;;;5080596;28;20028;-71
2023/07/11 04:38:38;;;;;;;7.38;4.60;;;19.40;99.90;;;;;;5088411;28;20024;-71
2023/07/11 04:41:05;;;;;;;5.72;4.20;;;19.40;99.90;;;;;;5089151;28;20097;-71
2023/07/11 04:43:33;;;;;;;6.45;4.15;;;19.40;99.90;;;;;;5077169;28;20023;-71
2023/07/11 04:46:00;;;;;;;9.05;5.60;;;19.50;99.90;;;;;;5080583;28;20050;-71
2023/07/11 04:48:26;;;;;;;5.80;4.63;;;19.40;99.90;;;;;;5082190;28;20016;-71
2023/07/11 04:51:00;;;;;;;6.18;4.30;;;19.40;99.90;;;;;;5082270;28;20098;-71
2023/07/11 04:53:27;;;;;;;8.13;4.55;;;19.40;99.90;;;;;;5080749;28;20017;-71
2023/07/11 04:55:57;;;;;;;6.00;4.20;;;19.40;99.90;;;;;;5081231;28;20579;-71
2023/07/11 04:58:24;;;;;;;8.07;4.43;;;19.40;99.90;;;;;;5078462;28;20037;-71
2023/07/11 05:00:49;;;;;;;5.38;4.03;;;19.50;99.90;;;;;;5080233;28;20077;-71
2023/07/11 05:03:15;;;;;;;6.85;4.53;;;19.40;99.90;;;;;;5084139;28;20017;-71
2023/07/11 05:05:41;;;;;;;8.13;4.88;;;19.50;99.90;;;;;;5080796;28;20442;-71
2023/07/11 05:08:06;;;;;;;7.82;4.55;;;19.60;99.90;;;;;;5080637;28;20042;-71
2023/07/11 05:10:32;;;;;;;6.00;4.45;;;19.60;99.90;;;;;;5080814;28;20033;-71
2023/07/11 05:12:58;;;;;;;6.53;4.47;;;19.70;99.90;;;;;;5082445;28;20073;-71
2023/07/11 05:15:23;;;;;;;9.52;4.85;;;19.70;99.90;;;;;;5089970;28;20522;-71
2023/07/11 05:17:49;;;;;;;8.70;3.92;;;19.80;99.90;;;;;;5076525;28;20036;-71
2023/07/11 05:20:14;;;;;;;6.80;3.97;;;19.80;99.90;;;;;;5078675;28;20032;-71
2023/07/11 05:22:40;;;;;;;5.30;3.72;;;19.90;99.90;;;;;;5080461;28;20020;-71
2023/07/11 05:25:06;;;;;;;8.70;3.92;;;19.90;99.90;;;;;;5079924;28;20486;-71
2023/07/11 05:27:32;;;;;;;3.90;3.50;;;19.90;99.90;;;;;;5080301;28;20039;-71
2023/07/11 05:29:58;;;;;;;5.95;3.38;;;19.90;99.90;;;;;;5080528;28;20476;-71
2023/07/11 05:32:23;;;;;;;4.97;3.10;;;20.00;99.90;;;;;;5086186;28;20081;-71
2023/07/11 05:34:49;;;;;;;4.70;3.38;;;20.00;99.90;;;;;;5085691;28;20077;-71
2023/07/11 05:37:15;;;;;;;4.85;3.38;;;20.00;99.90;;;;;;5077779;28;20578;-71
2023/07/11 05:39:40;;;;;;;6.18;3.42;;;20.10;99.90;;;;;;5082407;28;20033;-71
2023/07/11 05:42:06;;;;;;;4.85;3.05;;;20.10;99.90;;;;;;5080790;28;20095;-71
2023/07/11 05:44:32;;;;;;;4.95;3.03;;;20.10;99.90;;;;;;5081398;28;20040;-71
2023/07/11 05:46:57;;;;;;;6.60;3.47;;;20.20;99.90;;;;;;5079472;28;20009;-72
2023/07/11 05:49:23;;;;;;;7.28;3.40;;;20.20;99.90;;;;;;5080636;28;20099;-71
2023/07/11 05:51:49;;;;;;;6.30;3.15;;;20.30;99.90;;;;;;5081297;28;20086;-72
2023/07/11 05:54:15;;;;;;;6.90;3.20;;;20.30;99.90;;;;;;5077436;28;20066;-71
2023/07/11 05:56:41;;;;;;;5.18;3.17;;;20.40;99.90;;;;;;5081708;28;20016;-71
2023/07/11 05:59:07;;;;;;;5.82;3.15;;;20.40;99.90;;;;;;5083442;28;20649;-72
2023/07/11 06:01:32;;;;;;;5.18;3.08;;;20.50;99.90;;;;;;5080205;28;20029;-71
2023/07/11 06:04:16;;;;;;;6.75;3.05;;;20.60;99.90;;;;;;5083044;28;20036;-71
2023/07/11 06:06:42;;;;;;;5.95;3.20;;;20.60;99.90;;;;;;5082874;28;20028;-72
2023/07/11 06:09:20;;;;;;;5.70;3.20;;;20.60;99.90;;;;;;5079775;28;20030;-71
2023/07/11 06:11:48;;;;;;;5.88;3.35;;;20.70;99.90;;;;;;5077003;28;20033;-72
2023/07/11 06:14:15;;;;;;;7.85;3.55;;;20.80;99.90;;;;;;5075521;28;20024;-71
2023/07/11 06:16:42;;;;;;;6.32;3.35;;;20.90;99.90;;;;;;5081356;28;20039;-71
2023/07/11 06:19:08;;;;;;;4.68;3.20;;;20.90;99.90;;;;;;5080333;28;20032;-72
2023/07/11 06:21:34;;;;;;;4.70;2.90;;;21.00;99.90;;;;;;5075522;28;20020;-72
2023/07/11 06:24:00;;;;;;;6.35;2.97;;;21.10;99.90;;;;;;5075830;28;20484;-71
2023/07/11 06:26:25;;;;;;;6.50;2.72;;;21.20;99.90;;;;;;5078695;28;20550;-72
2023/07/11 06:28:51;;;;;;;7.85;2.92;;;21.30;99.90;;;;;;5082938;28;20031;-71
2023/07/11 06:31:17;;;;;;;8.15;2.78;;;21.30;99.90;;;;;;5085081;28;20031;-71
2023/07/11 06:33:43;;;;;;;8.20;2.97;;;21.40;99.90;;;;;;5083181;28;20373;-72
2023/07/11 06:36:09;;;;;;;4.30;2.70;;;21.40;99.90;;;;;;5086277;28;20028;-72
2023/07/11 06:38:35;;;;;;;4.38;2.65;;;21.50;99.90;;;;;;5083400;28;20035;-72
2023/07/11 06:41:01;;;;;;;4.05;2.70;;;21.60;99.90;;;;;;5080274;28;20020;-72
2023/07/11 06:43:28;;;;;;;6.07;3.03;;;21.70;99.90;;;;;;5078947;28;20488;-71
2023/07/11 06:45:56;;;;;;;6.70;2.65;;;21.80;99.90;;;;;;5080611;28;20036;-71
2023/07/11 06:48:25;;;;;;;5.82;2.78;;;21.80;99.90;;;;;;5081866;28;20024;-71
2023/07/11 06:50:57;;;;;;;7.07;2.97;;;22.00;99.90;;;;;;5086460;28;20032;-72
2023/07/11 06:53:28;;;;;;;5.72;2.75;;;22.00;99.90;;;;;;5084006;28;20473;-72
2023/07/11 06:55:54;;;;;;;9.80;2.60;;;22.10;99.90;;;;;;5079715;28;20012;-71
2023/07/11 06:58:20;;;;;;;9.25;2.83;;;22.20;99.90;;;;;;5082397;28;21267;-72
2023/07/11 07:01:12;;;;;;;5.40;2.40;;;22.40;99.90;;;;;;5078205;28;20029;-71
2023/07/11 07:03:38;;;;;;;5.68;2.70;;;22.50;99.90;;;;;;5082240;28;20040;-72
2023/07/11 07:06:11;;;;;;;7.32;2.28;;;22.70;99.90;;;;;;5086846;28;20036;-71
2023/07/11 07:08:37;;;;;;;6.15;2.65;;;22.80;99.90;;;;;;5100988;28;21330;-71
2023/07/11 07:11:03;;;;;;;3.95;2.08;;;23.00;99.90;;;;;;5086120;28;20094;-72
2023/07/11 07:13:29;;;;;;;4.32;2.47;;;23.20;99.90;;;;;;5083847;28;20028;-72
2023/07/11 07:15:58;;;;;;;5.20;2.42;;;23.30;99.90;;;;;;5083476;28;20032;-72
2023/07/11 07:18:24;;;;;;;5.78;2.60;;;23.40;99.90;;;;;;5078594;28;20028;-72
2023/07/11 07:20:52;;;;;;;7.65;2.53;;;23.50;99.90;;;;;;5087297;28;20016;-72
2023/07/11 07:23:18;;;;;;;6.22;2.53;;;23.60;99.90;;;;;;5085260;28;20059;-72
2023/07/11 07:25:53;;;;;;;6.78;2.70;;;23.70;99.90;;;;;;5081570;28;20023;-72
2023/07/11 07:28:19;;;;;;;4.53;2.65;;;23.70;99.90;;;;;;5083422;28;20016;-72
2023/07/11 07:30:53;;;;;;;4.85;2.50;;;23.90;99.90;;;;;;5083067;28;20033;-72
2023/07/11 07:33:18;;;;;;;5.90;2.60;;;24.00;99.90;;;;;;5081309;28;20488;-72
2023/07/11 07:35:44;;;;;;;3.70;2.40;;;24.20;99.90;;;;;;5083732;28;20056;-72
2023/07/11 07:38:11;;;;;;;4.55;2.33;;;24.30;99.90;;;;;;5086485;28;20057;-72
2023/07/11 07:40:37;;;;;;;7.22;2.90;;;24.50;99.90;;;;;;5088042;28;20050;-72
2023/07/11 07:43:03;;;;;;;6.28;2.42;;;24.60;99.90;;;;;;5083241;28;20026;-72
2023/07/11 07:45:28;;;;;;;6.55;2.65;;;24.70;99.90;;;;;;5082831;28;20041;-72
2023/07/11 07:47:54;;;;;;;6.35;2.60;;;24.80;99.90;;;;;;5087777;28;20046;-72
2023/07/11 07:50:20;;;;;;;5.55;2.47;;;24.80;99.90;;;;;;5086587;28;20036;-72
2023/07/11 07:52:46;;;;;;;5.55;2.30;;;25.00;99.90;;;;;;5085160;28;20020;-72
2023/07/11 07:55:12;;;;;;;3.80;2.55;;;25.00;99.90;;;;;;5078440;28;20091;-72
2023/07/11 07:57:37;;;;;;;5.22;2.30;;;25.10;99.90;;;;;;5075173;28;20454;-72
2023/07/11 08:00:04;;;;;;;9.32;2.67;;;25.10;99.90;;;;;;5083264;28;20473;-70
2023/07/11 08:02:31;;;;;;;8.45;2.70;;;25.10;99.90;;;;;;5081043;28;20477;-72
2023/07/11 08:04:57;;;;;;;2.78;2.47;;;25.10;99.90;;;;;;5088405;28;20093;-71
2023/07/11 08:07:25;;;;;;;6.43;2.53;;;25.20;99.90;;;;;;5083779;28;20476;-70
2023/07/11 08:09:50;;;;;;;8.32;2.60;;;25.30;99.90;;;;;;5085572;28;20099;-71
2023/07/11 08:12:16;;;;;;;7.32;2.40;;;25.40;99.90;;;;;;5088236;28;20103;-70
2023/07/11 08:14:42;;;;;;;5.05;2.50;;;25.40;99.90;;;;;;5080886;28;20029;-70
2023/07/11 08:17:09;;;;;;;6.85;2.80;;;25.40;99.90;;;;;;5082403;28;20036;-70
2023/07/11 08:19:35;;;;;;;5.97;2.10;;;25.40;99.90;;;;;;5081963;28;20052;-71
2023/07/11 08:22:00;;;;;;;6.40;2.45;;;25.40;99.90;;;;;;5086332;28;20063;-70
2023/07/11 08:24:27;;;;;;;5.30;2.28;;;25.40;99.90;;;;;;5085388;28;20361;-71
2023/07/11 08:26:53;;;;;;;3.67;3.13;;;25.40;99.90;;;;;;5082820;28;20071;-70
2023/07/11 08:29:19;;;;;;;4.07;2.58;;;25.50;99.90;;;;;;5079927;28;20032;-70
2023/07/11 08:31:44;;;;;;;5.47;2.60;;;25.60;99.90;;;;;;5082017;28;20027;-71
2023/07/11 08:34:10;;;;;;;6.20;2.88;;;25.80;99.90;;;;;;5083217;28;20028;-71
2023/07/11 08:36:39;;;;;;;6.22;2.90;;;26.00;99.90;;;;;;5079633;28;20464;-71
2023/07/11 08:39:05;;;;;;;5.63;2.45;;;26.20;99.90;;;;;;5076716;28;20028;-71
2023/07/11 08:41:49;;;;;;;5.07;2.40;;;26.40;99.90;;;;;;5083475;28;20469;-73
2023/07/11 08:44:15;;;;;;;4.85;2.10;;;26.60;99.90;;;;;;5083966;28;20032;-73
2023/07/11 08:46:52;;;;;;;5.68;2.35;;;27.00;99.90;;;;;;5080795;28;20029;-73
2023/07/11 08:49:27;;;;;;;5.95;2.30;;;27.20;99.90;;;;;;5086169;28;20029;-72
2023/07/11 08:51:56;;;;;;;4.32;2.53;;;27.20;99.90;;;;;;5080850;28;20017;-72
2023/07/11 08:54:39;;;;;;;6.68;2.38;;;27.40;99.90;;;;;;5082904;28;20339;-72
2023/07/11 08:57:08;;;;;;;6.53;2.25;;;27.70;99.90;;;;;;5080704;28;20587;-72
2023/07/11 08:59:58;;;;;;;7.57;2.30;;;27.80;99.90;;;;;;5079421;28;20075;-72
2023/07/11 09:02:47;;;;;;;5.32;2.20;;;27.90;99.90;;;;;;5082563;28;20404;-71
2023/07/11 09:05:18;;;;;;;5.18;2.33;;;28.10;99.90;;;;;;5080242;28;20040;-71
2023/07/11 09:07:45;;;;;;;6.72;2.22;;;28.20;99.90;;;;;;5082006;28;20025;-70
2023/07/11 09:10:26;;;;;;;6.82;2.92;;;28.30;99.90;;;;;;5083087;28;20044;-70
2023/07/11 09:13:14;;;;;;;6.75;2.20;;;28.40;99.90;;;;;;5082847;28;20031;-71
2023/07/11 09:16:17;;;;;;;8.43;2.40;;;28.60;99.90;;;;;;5080009;28;20031;-71
2023/07/11 09:19:00;;;;;;;6.40;2.20;;;28.60;99.90;;;;;;5054390;28;20030;-71
2023/07/11 09:21:31;;;;;;;4.50;2.30;;;28.50;99.90;;;;;;5094547;28;20027;-71
2023/07/11 09:24:03;;;;;;;4.57;2.47;;;28.30;99.90;;;;;;5096608;28;20031;-72
2023/07/11 09:26:30;;;;;;;4.38;3.00;;;28.50;99.90;;;;;;5095106;28;20454;-71
2023/07/11 09:29:05;;;;;;;7.90;2.33;;;28.80;99.90;;;;;;5097381;28;20035;-71
2023/07/11 09:31:55;;;;;;;4.60;2.53;;;29.10;99.90;;;;;;5100307;28;20402;-71
2023/07/11 09:34:26;;;;;;;5.95;2.33;;;29.30;99.90;;;;;;5100528;28;20059;-72
2023/07/11 09:36:55;;;;;;;2.95;2.15;;;29.30;99.90;;;;;;5096164;28;20039;-70
2023/07/11 09:39:40;;;;;;;4.07;2.10;;;29.30;99.90;;;;;;5095613;28;20103;-71
2023/07/11 09:42:22;;;;;;;4.22;2.20;;;29.30;99.90;;;;;;5091326;28;20027;-71
2023/07/11 09:45:15;;;;;;;4.72;2.38;;;29.30;99.90;;;;;;5091535;28;20471;-71
2023/07/11 09:47:47;;;;;;;4.45;2.58;;;29.10;99.90;;;;;;5095110;28;20039;-71
2023/07/11 09:50:27;;;;;;;5.43;2.40;;;29.10;99.90;;;;;;5097012;28;20020;-72
2023/07/11 09:52:56;;;;;;;6.22;2.53;;;29.30;99.90;;;;;;5088249;28;20027;-71
2023/07/11 09:55:24;;;;;;;5.05;2.42;;;29.30;99.90;;;;;;5097345;28;20023;-71
2023/07/11 09:57:51;;;;;;;4.05;2.30;;;29.20;99.90;;;;;;5089013;28;20035;-71
2023/07/11 10:00:17;;;;;;;3.85;2.42;;;29.10;99.90;;;;;;5090565;28;20103;-70
2023/07/11 10:02:46;;;;;;;4.75;2.28;;;29.10;99.90;;;;;;5092009;28;20031;-69
2023/07/11 10:05:22;;;;;;;6.38;2.58;;;29.20;99.90;;;;;;5098301;28;20122;-69
2023/07/11 10:08:02;;;;;;;6.30;2.50;;;29.20;99.90;;;;;;5098058;28;20030;-68
2023/07/11 10:10:28;;;;;;;4.68;2.47;;;29.20;99.90;;;;;;5087627;28;20034;-69
2023/07/11 10:12:54;;;;;;;6.30;2.80;;;29.20;99.90;;;;;;5093421;28;20023;-69
2023/07/11 10:15:24;;;;;;;4.47;2.42;;;29.50;99.90;;;;;;5098434;28;20545;-69
2023/07/11 10:17:55;;;;;;;4.80;2.55;;;29.60;99.90;;;;;;5098127;28;20023;-70
2023/07/11 10:20:22;;;;;;;5.88;2.83;;;29.60;99.90;;;;;;5089566;28;20031;-70
2023/07/11 10:22:51;;;;;;;5.05;2.03;;;29.80;99.90;;;;;;5091965;28;20095;-70
2023/07/11 10:25:27;;;;;;;5.95;2.38;;;29.90;99.90;;;;;;5085372;28;20055;-70
2023/07/11 10:27:52;;;;;;;5.28;2.90;;;30.20;99.90;;;;;;5093050;28;20031;-71
2023/07/11 10:30:25;;;;;;;5.05;3.00;;;30.20;99.90;;;;;;5094343;28;20068;-70
2023/07/11 10:32:58;;;;;;;4.07;2.65;;;30.30;99.90;;;;;;5093940;28;20078;-70
2023/07/11 10:35:25;;;;;;;5.43;2.35;;;30.40;99.90;;;;;;5097005;28;20434;-69
2023/07/11 10:37:54;;;;;;;7.00;2.45;;;30.30;99.90;;;;;;5097051;28;20075;-70
2023/07/11 10:40:30;;;;;;;5.60;2.67;;;30.40;99.90;;;;;;5100238;28;20023;-69
2023/07/11 10:43:03;;;;;;;6.75;2.72;;;30.50;99.90;;;;;;5088801;28;20023;-70
2023/07/11 10:45:31;;;;;;;3.20;2.55;;;30.40;99.90;;;;;;5096856;28;20035;-70
2023/07/11 10:48:04;;;;;;;7.63;2.88;;;30.40;99.90;;;;;;5096638;28;20031;-70
2023/07/11 10:50:38;;;;;;;;;;;30.40;99.90;;;;;;5090719;28;20439;-70
2023/07/11 10:53:31;;;;;;;6.35;2.70;;;30.50;99.90;;;;;;5094971;28;20272;-69
2023/07/11 10:56:21;;;;;;;4.32;2.58;;;30.40;99.90;;;;;;5086950;28;20036;-70
2023/07/11 10:58:48;;;;;;;7.40;2.58;;;30.50;99.90;;;;;;5096635;28;20035;-72
2023/07/11 11:01:51;;;;;;;6.10;2.63;;;30.30;99.90;;;;;;5095585;28;20032;-69
2023/07/11 11:04:51;;;;;;;6.10;2.40;;;30.00;99.90;;;;;;5091316;28;20109;-71
2023/07/11 11:07:42;;;;;;;8.45;2.80;;;30.30;99.90;;;;;;5095899;28;20080;-70
2023/07/11 11:10:35;;;;;;;8.07;2.83;;;30.70;99.90;;;;;;5096984;28;20099;-70
2023/07/11 11:13:10;;;;;;;6.25;2.60;;;30.80;99.90;;;;;;5100412;28;20080;-71
2023/07/11 11:15:42;;;;;;;7.10;3.00;;;30.40;99.50;;;;;;5091193;28;20042;-70
2023/07/11 11:18:26;;;;;;;5.53;2.85;;;30.40;99.90;;;;;;5095053;28;20130;-71
2023/07/11 11:21:12;;;;;;;4.05;2.55;;;30.40;99.90;;;;;;5099918;28;20043;-70
2023/07/11 11:23:57;;;;;;;13.40;2.22;;;30.40;99.90;;;;;;5100824;28;20035;-69
2023/07/11 11:26:32;;;;;;;6.18;2.90;;;30.50;99.90;;;;;;5097970;28;20039;-70
2023/07/11 11:29:22;;;;;;;8.93;2.72;;;30.30;99.90;;;;;;5091451;28;20073;-70
2023/07/11 11:32:08;;;;;;;6.03;2.90;;;30.70;99.90;;;;;;5101480;28;20031;-70
2023/07/11 11:34:59;;;;;;;7.25;2.72;;;30.80;99.90;;;;;;5093137;28;20102;-70
2023/07/11 11:37:36;;;;;;;4.93;2.55;;;31.10;99.90;;;;;;5099764;28;20020;-71
2023/07/11 11:40:10;;;;;;;5.07;2.42;;;31.10;99.90;;;;;;5096817;28;20036;-69
2023/07/11 11:42:40;;;;;;;5.65;2.72;;;31.10;99.90;;;;;;5099344;28;20028;-70
2023/07/11 11:45:16;;;;;;;6.40;2.88;;;31.10;99.90;;;;;;5099585;28;20047;-70
2023/07/11 11:47:43;;;;;;;7.38;2.63;;;31.10;99.90;;;;;;5099347;28;20039;-70
2023/07/11 11:50:16;;;;;;;6.00;3.00;;;31.10;99.90;;;;;;5100032;28;20028;-70
2023/07/11 11:52:42;;;;;;;6.25;2.92;;;31.20;99.90;;;;;;5100511;28;20024;-69
2023/07/11 11:55:37;;;;;;;2.80;2.30;;;31.30;99.80;;;;;;5094719;28;20012;-69
2023/07/11 11:58:05;;;;;;;7.63;2.88;;;31.50;99.80;;;;;;5096867;28;20042;-69
2023/07/11 12:00:39;;;;;;;7.30;3.17;;;31.50;99.90;;;;;;5092619;28;20027;-70
2023/07/11 12:03:18;;;;;;;6.15;2.90;;;31.50;99.90;;;;;;5096225;28;20031;-70
2023/07/11 12:05:49;;;;;;;6.47;2.92;;;31.60;99.90;;;;;;5101870;28;20039;-70
2023/07/11 12:08:25;;;;;;;6.05;2.92;;;31.90;99.90;;;;;;5092385;28;20032;-70
2023/07/11 12:11:09;;;;;;;7.25;2.75;;;32.00;99.70;;;;;;5097727;28;20041;-70
2023/07/11 12:13:44;;;;;;;7.50;2.70;;;32.00;99.90;;;;;;5101474;27;20059;-72
2023/07/11 12:16:21;;;;;;;3.95;3.13;;;32.00;99.90;;;;;;5101896;28;20015;-72
2023/07/11 12:18:52;;;;;;;6.97;2.78;;;32.20;99.80;;;;;;5101539;28;20155;-71
2023/07/11 12:21:36;;;;;;;6.32;3.20;;;32.30;99.90;;;;;;5097947;28;20020;-72
2023/07/11 12:24:23;;;;;;;4.10;2.72;;;32.60;98.60;;;;;;5100936;28;20878;-71
2023/07/11 12:26:53;;;;;;;7.85;3.20;;;32.60;98.40;;;;;;5102049;28;20035;-71
2023/07/11 12:29:30;;;;;;;5.32;2.75;;;32.40;98.30;;;;;;5098927;28;20066;-71
2023/07/11 12:32:33;;;;;;;5.88;2.90;;;32.40;98.90;;;;;;5090139;28;20091;-71
2023/07/11 12:35:04;;;;;;;7.75;3.17;;;32.60;98.40;;;;;;5099491;28;20024;-71
2023/07/11 12:37:50;;;;;;;3.17;2.80;;;32.60;98.90;;;;;;5096499;28;20545;-71
2023/07/11 12:40:27;;;;;;;4.60;2.92;;;32.70;97.90;;;;;;5100288;28;20032;-71
2023/07/11 12:42:59;;;;;;;6.47;2.40;;;32.60;97.20;;;;;;5102718;28;20020;-71
2023/07/11 12:45:25;;;;;;;;;;;32.70;98.30;;;;;;5100070;28;20119;-71
2023/07/11 12:48:01;;;;;;;8.45;2.72;;;32.80;97.80;;;;;;5098471;28;19915;-71
2023/07/11 12:50:40;;;;;;;7.70;3.15;;;32.80;97.40;;;;;;5089928;28;20020;-71
2023/07/11 12:53:06;;;;;;;5.15;3.13;;;32.90;96.90;;;;;;5098366;28;20036;-71
2023/07/11 12:55:32;;;;;;;5.32;2.85;;;32.90;96.40;;;;;;5088408;28;20022;-71
2023/07/11 12:57:58;;;;;;;5.07;2.75;;;32.90;96.70;;;;;;5099098;28;20578;-71
2023/07/11 13:00:28;;;;;;;6.00;2.65;;;32.90;96.50;;;;;;5086583;27;20103;-71